createdAt,value
2023-12-11T00:00:04.608Z,80.48
2023-12-11T00:01:06.627Z,80.30
2023-12-11T00:02:08.544Z,80.66
2023-12-11T00:03:10.243Z,80.04
2023-12-11T00:04:14.905Z,80.56
2023-12-11T00:05:16.807Z,80.22
2023-12-11T00:06:18.702Z,80.80
2023-12-11T00:07:20.436Z,80.63
2023-12-11T00:08:22.289Z,80.18
2023-12-11T00:09:24.076Z,80.70
2023-12-11T00:10:25.877Z,80.52
2023-12-11T00:11:27.651Z,80.18
2023-12-11T00:12:29.326Z,80.36
2023-12-11T00:13:31.190Z,80.59
2023-12-11T00:14:32.913Z,80.88
2023-12-11T00:15:34.633Z,80.74
2023-12-11T00:16:36.470Z,80.48
2023-12-11T00:17:38.464Z,80.97
2023-12-11T00:18:40.518Z,81.08
2023-12-11T00:19:42.642Z,80.96
2023-12-11T00:20:44.466Z,81.07
2023-12-11T00:21:46.333Z,81.34
2023-12-11T00:22:48.013Z,81.28
2023-12-11T00:23:49.925Z,81.61
2023-12-11T00:24:51.831Z,81.23
2023-12-11T00:25:53.658Z,81.22
2023-12-11T00:26:55.440Z,81.18
2023-12-11T00:27:57.462Z,81.65
2023-12-11T00:28:59.189Z,81.18
2023-12-11T00:30:01.172Z,81.87
2023-12-11T00:31:03.016Z,81.48
2023-12-11T00:32:05.169Z,81.40
2023-12-11T00:33:07.274Z,82.15
2023-12-11T00:34:09.349Z,82.29
2023-12-11T00:35:11.202Z,81.97
2023-12-11T00:36:13.003Z,81.89
2023-12-11T00:37:14.757Z,82.43
2023-12-11T00:38:16.498Z,81.91
2023-12-11T00:39:18.369Z,82.22
2023-12-11T00:40:20.265Z,82.11
2023-12-11T00:41:22.260Z,82.27
2023-12-11T00:42:24.237Z,82.49
2023-12-11T00:43:26.426Z,82.35
2023-12-11T00:44:28.169Z,82.36
2023-12-11T00:45:30.146Z,82.13
2023-12-11T00:46:31.860Z,82.63
2023-12-11T00:47:33.974Z,82.32
2023-12-11T00:48:36.088Z,83.03
2023-12-11T00:49:38.101Z,82.43
2023-12-11T00:50:39.897Z,82.64
2023-12-11T00:51:41.669Z,83.78
2023-12-11T00:52:43.621Z,83.77
2023-12-11T00:53:46.341Z,83.74
2023-12-11T00:54:48.042Z,83.51
2023-12-11T00:55:49.838Z,83.64
2023-12-11T00:56:52.248Z,83.88
2023-12-11T00:57:54.594Z,83.76
2023-12-11T00:58:56.462Z,83.47
2023-12-11T00:59:58.156Z,83.55
2023-12-11T01:01:00.050Z,83.28
2023-12-11T01:02:02.009Z,83.48
2023-12-11T01:03:04.424Z,83.29
2023-12-11T01:04:06.365Z,83.16
2023-12-11T01:05:08.514Z,82.90
2023-12-11T01:06:10.406Z,82.99
2023-12-11T01:07:12.195Z,82.61
2023-12-11T01:08:14.036Z,82.71
2023-12-11T01:09:15.977Z,82.63
2023-12-11T01:10:17.726Z,83.07
2023-12-11T01:11:19.579Z,83.34
2023-12-11T01:12:21.462Z,84.43
2023-12-11T01:13:23.326Z,84.18
2023-12-11T01:14:25.288Z,84.47
2023-12-11T01:15:27.366Z,84.63
2023-12-11T01:16:29.083Z,85.02
2023-12-11T01:17:38.741Z,84.59
2023-12-11T01:18:43.404Z,84.90
2023-12-11T01:19:45.463Z,84.13
2023-12-11T01:20:47.384Z,83.81
2023-12-11T01:21:49.226Z,83.55
2023-12-11T01:22:50.993Z,83.02
2023-12-11T01:23:54.900Z,83.30
2023-12-11T01:24:57.438Z,82.87
2023-12-11T01:25:59.216Z,82.44
2023-12-11T01:27:01.247Z,82.38
2023-12-11T01:28:03.132Z,82.58
2023-12-11T01:29:04.939Z,82.51
2023-12-11T01:30:08.050Z,82.58
2023-12-11T01:31:10.547Z,82.84
2023-12-11T01:32:12.424Z,83.10
2023-12-11T01:33:14.706Z,83.10
2023-12-11T01:34:16.708Z,83.08
2023-12-11T01:35:18.698Z,82.91
2023-12-11T01:36:20.614Z,83.38
2023-12-11T01:37:22.513Z,83.02
2023-12-11T01:38:24.315Z,83.22
2023-12-11T01:39:26.171Z,83.04
2023-12-11T01:40:27.964Z,83.54
2023-12-11T01:41:29.818Z,83.59
2023-12-11T01:42:31.881Z,83.69
2023-12-11T01:43:34.320Z,84.15
2023-12-11T01:44:37.399Z,84.58
2023-12-11T01:45:40.416Z,84.97
2023-12-11T01:46:42.332Z,84.70
2023-12-11T01:47:44.268Z,85.16
2023-12-11T01:48:47.063Z,85.28
2023-12-11T01:49:49.062Z,85.46
2023-12-11T01:50:50.933Z,85.26
2023-12-11T01:51:52.763Z,84.97
2023-12-11T01:52:54.606Z,84.77
2023-12-11T01:53:56.599Z,84.71
2023-12-11T01:54:58.557Z,84.47
2023-12-11T01:56:00.877Z,84.58
2023-12-11T01:57:02.681Z,84.52
2023-12-11T01:58:05.559Z,83.90
2023-12-11T01:59:07.909Z,84.12
2023-12-11T02:00:10.300Z,84.41
2023-12-11T02:01:13.418Z,84.21
2023-12-11T02:02:15.117Z,84.30
2023-12-11T02:03:17.086Z,84.51
2023-12-11T02:04:19.175Z,84.63
2023-12-11T02:05:21.351Z,84.95
2023-12-11T02:06:23.332Z,85.15
2023-12-11T02:07:25.152Z,85.44
2023-12-11T02:08:26.992Z,85.32
2023-12-11T02:09:28.799Z,85.38
2023-12-11T02:10:30.723Z,85.18
2023-12-11T02:11:32.625Z,85.50
2023-12-11T02:12:34.542Z,85.43
2023-12-11T02:13:36.831Z,85.22
2023-12-11T02:14:38.589Z,84.92
2023-12-11T02:15:45.565Z,84.88
2023-12-11T02:16:47.390Z,84.61
2023-12-11T02:17:49.092Z,84.46
2023-12-11T02:18:51.132Z,84.17
2023-12-11T02:19:53.008Z,84.30
2023-12-11T02:20:54.814Z,84.41
2023-12-11T02:21:57.081Z,84.53
2023-12-11T02:23:01.474Z,84.23
2023-12-11T02:24:19.509Z,83.92
2023-12-11T02:25:21.286Z,83.98
2023-12-11T02:26:23.309Z,84.32
2023-12-11T02:27:25.862Z,83.97
2023-12-11T02:28:27.837Z,84.14
2023-12-11T02:29:29.818Z,84.03
2023-12-11T02:30:38.806Z,83.70
2023-12-11T02:31:40.715Z,83.60
2023-12-11T02:32:42.610Z,83.78
2023-12-11T02:33:44.452Z,83.48
2023-12-11T02:34:48.940Z,83.85
2023-12-11T02:35:50.948Z,84.45
2023-12-11T02:36:52.801Z,84.30
2023-12-11T02:37:54.863Z,84.44
2023-12-11T02:38:56.999Z,84.36
2023-12-11T02:39:58.821Z,84.49
2023-12-11T02:41:00.826Z,84.52
2023-12-11T02:42:02.605Z,84.38
2023-12-11T02:43:05.086Z,84.59
2023-12-11T02:44:06.702Z,84.32
2023-12-11T02:45:08.831Z,84.51
2023-12-11T02:46:10.752Z,84.71
2023-12-11T02:47:12.392Z,85.17
2023-12-11T02:48:15.629Z,84.82
2023-12-11T02:49:17.557Z,85.05
2023-12-11T02:50:19.450Z,84.75
2023-12-11T02:51:21.392Z,85.03
2023-12-11T02:52:24.620Z,84.89
2023-12-11T02:53:26.430Z,85.31
2023-12-11T02:54:28.292Z,85.74
2023-12-11T02:55:30.442Z,85.68
2023-12-11T02:56:32.285Z,85.37
2023-12-11T02:57:34.107Z,85.43
2023-12-11T02:58:36.234Z,85.53
2023-12-11T02:59:38.628Z,85.25
2023-12-11T03:00:40.631Z,85.67
2023-12-11T03:01:42.529Z,85.38
2023-12-11T03:02:44.436Z,85.27
2023-12-11T03:03:46.151Z,85.15
2023-12-11T03:04:48.158Z,85.02
2023-12-11T03:05:50.692Z,84.96
2023-12-11T03:06:53.329Z,84.73
2023-12-11T03:07:55.177Z,84.61
2023-12-11T03:08:57.034Z,84.64
2023-12-11T03:09:58.736Z,85.14
2023-12-11T03:11:00.620Z,84.25
2023-12-11T03:12:02.434Z,84.54
2023-12-11T03:13:04.185Z,84.61
2023-12-11T03:14:05.933Z,84.89
2023-12-11T03:15:09.293Z,85.12
2023-12-11T03:16:14.775Z,85.37
2023-12-11T03:17:16.621Z,85.53
2023-12-11T03:18:18.395Z,85.88
2023-12-11T03:19:20.229Z,85.90
2023-12-11T03:20:22.052Z,85.80
2023-12-11T03:21:23.960Z,85.86
2023-12-11T03:22:26.704Z,85.80
2023-12-11T03:23:28.616Z,86.22
2023-12-11T03:24:30.383Z,85.99
2023-12-11T03:25:32.111Z,85.94
2023-12-11T03:26:33.878Z,86.40
2023-12-11T03:27:35.691Z,86.24
2023-12-11T03:28:37.384Z,86.30
2023-12-11T03:29:39.126Z,86.19
2023-12-11T03:30:41.045Z,86.05
2023-12-11T03:31:42.841Z,86.28
2023-12-11T03:32:44.946Z,85.95
2023-12-11T03:33:46.881Z,86.19
2023-12-11T03:34:48.753Z,86.01
2023-12-11T03:35:50.433Z,85.94
2023-12-11T03:36:52.228Z,85.84
2023-12-11T03:37:53.994Z,85.80
2023-12-11T03:38:56.650Z,85.65
2023-12-11T03:39:58.395Z,85.45
2023-12-11T03:41:00.126Z,85.50
2023-12-11T03:42:02.155Z,85.43
2023-12-11T03:43:04.005Z,85.58
2023-12-11T03:44:05.869Z,85.16
2023-12-11T03:45:07.788Z,85.32
2023-12-11T03:46:09.608Z,85.33
2023-12-11T03:47:11.944Z,85.41
2023-12-11T03:48:14.203Z,85.57
2023-12-11T03:49:21.267Z,85.47
2023-12-11T03:50:23.188Z,85.64
2023-12-11T03:51:25.029Z,85.38
2023-12-11T03:52:26.740Z,85.43
2023-12-11T03:53:28.500Z,85.19
2023-12-11T03:54:30.399Z,84.93
2023-12-11T03:55:32.174Z,84.83
2023-12-11T03:56:34.167Z,84.86
2023-12-11T03:57:36.018Z,84.78
2023-12-11T03:58:37.921Z,84.71
2023-12-11T03:59:39.839Z,84.19
2023-12-11T04:00:41.799Z,85.02
2023-12-11T04:01:43.807Z,84.85
2023-12-11T04:02:45.765Z,84.53
2023-12-11T04:03:47.692Z,84.90
2023-12-11T04:04:49.807Z,85.90
2023-12-11T04:05:51.814Z,86.96
2023-12-11T04:06:53.582Z,87.44
2023-12-11T04:07:55.457Z,87.83
2023-12-11T04:08:57.200Z,88.50
2023-12-11T04:09:58.995Z,89.06
2023-12-11T04:11:00.872Z,89.31
2023-12-11T04:12:02.675Z,89.33
2023-12-11T04:13:04.441Z,88.96
2023-12-11T04:14:06.261Z,88.56
2023-12-11T04:15:08.639Z,88.16
2023-12-11T04:16:10.698Z,88.16
2023-12-11T04:17:12.512Z,87.68
2023-12-11T04:18:14.362Z,87.75
2023-12-11T04:19:16.242Z,87.39
2023-12-11T04:20:18.125Z,87.91
2023-12-11T04:21:19.956Z,88.19
2023-12-11T04:22:21.829Z,88.36
2023-12-11T04:23:23.522Z,89.12
2023-12-11T04:24:25.254Z,88.32
2023-12-11T04:25:27.123Z,87.95
2023-12-11T04:26:28.828Z,87.86
2023-12-11T04:27:30.665Z,88.24
2023-12-11T04:28:32.690Z,88.30
2023-12-11T04:29:34.630Z,87.78
2023-12-11T04:30:36.456Z,87.90
2023-12-11T04:31:38.304Z,87.38
2023-12-11T04:32:40.131Z,87.31
2023-12-11T04:33:42.055Z,87.04
2023-12-11T04:34:44.062Z,86.78
2023-12-11T04:35:46.210Z,86.68
2023-12-11T04:36:48.051Z,86.91
2023-12-11T04:37:49.721Z,87.01
2023-12-11T04:38:51.448Z,86.12
2023-12-11T04:39:54.384Z,86.91
2023-12-11T04:40:56.332Z,87.16
2023-12-11T04:41:58.120Z,86.89
2023-12-11T04:42:59.749Z,86.58
2023-12-11T04:44:01.607Z,86.57
2023-12-11T04:45:03.539Z,86.29
2023-12-11T04:46:05.398Z,86.37
2023-12-11T04:47:08.241Z,86.85
2023-12-11T04:48:10.009Z,86.68
2023-12-11T04:49:11.811Z,87.13
2023-12-11T04:50:13.675Z,87.64
2023-12-11T04:51:15.369Z,88.00
2023-12-11T04:52:18.716Z,87.80
2023-12-11T04:53:20.902Z,87.48
2023-12-11T04:54:22.691Z,87.71
2023-12-11T04:55:24.868Z,87.83
2023-12-11T04:56:26.772Z,88.18
2023-12-11T04:57:29.011Z,88.23
2023-12-11T04:58:31.046Z,88.98
2023-12-11T04:59:32.801Z,88.93
2023-12-11T05:00:34.568Z,88.45
2023-12-11T05:01:36.387Z,88.37
2023-12-11T05:02:38.241Z,88.05
2023-12-11T05:03:40.078Z,88.58
2023-12-11T05:04:42.171Z,88.15
2023-12-11T05:05:44.023Z,88.30
2023-12-11T05:06:46.025Z,87.81
2023-12-11T05:07:47.755Z,87.67
2023-12-11T05:08:49.565Z,86.76
2023-12-11T05:09:51.891Z,86.49
2023-12-11T05:10:53.765Z,86.58
2023-12-11T05:11:55.473Z,86.81
2023-12-11T05:12:57.195Z,87.07
2023-12-11T05:13:58.869Z,86.76
2023-12-11T05:15:03.509Z,87.20
2023-12-11T05:16:05.830Z,86.88
2023-12-11T05:17:08.061Z,86.69
2023-12-11T05:18:09.770Z,87.11
2023-12-11T05:19:11.666Z,87.21
2023-12-11T05:20:14.384Z,87.42
2023-12-11T05:21:16.182Z,88.05
2023-12-11T05:22:18.066Z,88.02
2023-12-11T05:23:19.820Z,88.54
2023-12-11T05:24:21.513Z,88.73
2023-12-11T05:25:23.282Z,88.24
2023-12-11T05:26:25.029Z,88.59
2023-12-11T05:27:27.176Z,89.11
2023-12-11T05:28:29.102Z,89.12
2023-12-11T05:29:30.856Z,89.75
2023-12-11T05:30:32.868Z,90.41
2023-12-11T05:31:34.738Z,90.20
2023-12-11T05:32:36.658Z,90.06
2023-12-11T05:33:38.693Z,89.93
2023-12-11T05:34:40.427Z,89.68
2023-12-11T05:35:42.579Z,89.73
2023-12-11T05:36:44.626Z,89.57
2023-12-11T05:37:46.473Z,89.64
2023-12-11T05:38:48.504Z,89.64
2023-12-11T05:39:57.822Z,89.40
2023-12-11T05:41:12.002Z,90.23
2023-12-11T05:42:13.772Z,90.57
2023-12-11T05:43:15.549Z,90.64
2023-12-11T05:44:17.272Z,91.35
2023-12-11T05:45:19.183Z,91.64
2023-12-11T05:46:21.104Z,91.87
2023-12-11T05:47:22.818Z,91.90
2023-12-11T05:48:24.730Z,91.65
2023-12-11T05:49:26.703Z,91.32
2023-12-11T05:50:29.837Z,90.76
2023-12-11T05:51:32.510Z,90.92
2023-12-11T05:52:34.475Z,90.85
2023-12-11T05:53:36.199Z,90.56
2023-12-11T05:54:38.011Z,90.48
2023-12-11T05:55:39.857Z,90.03
2023-12-11T05:56:41.636Z,89.97
2023-12-11T05:57:44.988Z,90.35
2023-12-11T05:58:47.348Z,89.90
2023-12-11T05:59:49.199Z,89.42
2023-12-11T06:00:50.888Z,89.22
2023-12-11T06:01:52.855Z,89.25
2023-12-11T06:02:54.722Z,89.68
2023-12-11T06:03:56.884Z,89.83
2023-12-11T06:04:58.752Z,89.91
2023-12-11T06:06:00.604Z,90.15
2023-12-11T06:07:02.253Z,89.88
2023-12-11T06:08:05.164Z,90.41
2023-12-11T06:09:06.844Z,90.22
2023-12-11T06:10:08.983Z,90.48
2023-12-11T06:11:11.691Z,90.85
2023-12-11T06:12:13.478Z,90.87
2023-12-11T06:13:15.343Z,90.98
2023-12-11T06:14:17.105Z,91.40
2023-12-11T06:15:18.766Z,91.14
2023-12-11T06:16:21.691Z,91.35
2023-12-11T06:17:23.457Z,91.42
2023-12-11T06:18:25.302Z,91.58
2023-12-11T06:19:27.151Z,91.53
2023-12-11T06:20:28.933Z,92.04
2023-12-11T06:21:30.713Z,91.82
2023-12-11T06:22:32.429Z,91.97
2023-12-11T06:23:34.136Z,91.89
2023-12-11T06:24:35.872Z,91.83
2023-12-11T06:25:37.593Z,91.57
2023-12-11T06:26:43.411Z,91.85
2023-12-11T06:27:45.660Z,91.82
2023-12-11T06:28:47.457Z,91.57
2023-12-11T06:29:49.208Z,91.67
2023-12-11T06:30:50.939Z,91.28
2023-12-11T06:31:53.114Z,90.89
2023-12-11T06:32:54.843Z,91.21
2023-12-11T06:33:57.300Z,91.14
2023-12-11T06:34:59.271Z,91.21
2023-12-11T06:36:01.060Z,91.01
2023-12-11T06:37:02.991Z,91.19
2023-12-11T06:38:05.232Z,91.39
2023-12-11T06:39:06.986Z,91.64
2023-12-11T06:40:10.525Z,91.75
2023-12-11T06:41:12.358Z,91.70
2023-12-11T06:42:14.049Z,91.40
2023-12-11T06:43:15.787Z,91.37
2023-12-11T06:44:17.597Z,91.65
2023-12-11T06:45:19.428Z,91.40
2023-12-11T06:46:21.617Z,91.91
2023-12-11T06:47:23.424Z,91.73
2023-12-11T06:48:25.379Z,91.97
2023-12-11T06:49:27.226Z,91.82
2023-12-11T06:50:29.350Z,92.08
2023-12-11T06:51:31.152Z,92.46
2023-12-11T06:52:32.868Z,92.28
2023-12-11T06:53:34.622Z,92.15
2023-12-11T06:54:36.385Z,92.59
2023-12-11T06:55:38.126Z,92.85
2023-12-11T06:56:40.162Z,92.87
2023-12-11T06:57:41.887Z,93.19
2023-12-11T06:58:43.630Z,92.94
2023-12-11T06:59:45.312Z,93.73
2023-12-11T07:00:47.115Z,94.23
2023-12-11T07:01:49.125Z,94.74
2023-12-11T07:02:51.113Z,94.62
2023-12-11T07:03:54.887Z,94.78
2023-12-11T07:04:58.103Z,95.07
2023-12-11T07:06:00.969Z,94.53
2023-12-11T07:07:02.948Z,93.96
2023-12-11T07:08:05.685Z,93.53
2023-12-11T07:09:07.537Z,93.22
2023-12-11T07:10:09.759Z,92.20
2023-12-11T07:11:11.478Z,91.55
2023-12-11T07:12:13.253Z,90.56
2023-12-11T07:13:15.069Z,90.94
2023-12-11T07:14:16.851Z,91.75
2023-12-11T07:15:20.861Z,91.77
2023-12-11T07:16:25.087Z,92.08
2023-12-11T07:17:27.161Z,90.63
2023-12-11T07:18:29.006Z,90.10
2023-12-11T07:19:31.067Z,91.36
2023-12-11T07:20:34.475Z,91.15
2023-12-11T07:21:36.498Z,91.29
2023-12-11T07:22:38.404Z,92.50
2023-12-11T07:23:40.383Z,94.00
2023-12-11T07:24:42.231Z,92.82
2023-12-11T07:25:44.084Z,86.76
2023-12-11T07:26:45.846Z,81.42
2023-12-11T07:27:47.903Z,78.59
2023-12-11T07:28:50.125Z,75.89
2023-12-11T07:29:52.442Z,77.81
2023-12-11T07:30:54.331Z,76.22
2023-12-11T07:31:56.406Z,76.14
2023-12-11T07:32:59.292Z,77.42
2023-12-11T07:34:01.396Z,82.18
2023-12-11T07:35:04.161Z,80.65
2023-12-11T07:36:06.545Z,80.25
2023-12-11T07:37:08.362Z,77.68
2023-12-11T07:38:10.210Z,74.55
2023-12-11T07:39:11.965Z,72.93
2023-12-11T07:40:14.006Z,71.94
2023-12-11T07:41:23.873Z,70.76
2023-12-11T07:42:25.542Z,70.31
2023-12-11T07:43:27.436Z,67.92
2023-12-11T07:44:29.793Z,66.32
2023-12-11T07:45:31.809Z,65.65
2023-12-11T07:46:33.581Z,64.08
2023-12-11T07:47:35.915Z,62.10
2023-12-11T07:48:38.387Z,62.03
2023-12-11T07:49:41.111Z,61.45
2023-12-11T07:50:42.987Z,61.49
2023-12-11T07:51:45.123Z,58.72
2023-12-11T07:52:46.973Z,57.58
2023-12-11T07:53:48.922Z,54.84
2023-12-11T07:54:50.791Z,52.17
2023-12-11T07:55:52.951Z,55.28
2023-12-11T07:56:54.904Z,57.54
2023-12-11T07:57:56.624Z,53.89
2023-12-11T07:58:58.472Z,55.55
2023-12-11T08:00:00.498Z,58.32
2023-12-11T08:01:02.375Z,57.81
2023-12-11T08:02:04.491Z,56.41
2023-12-11T08:03:07.503Z,55.14
2023-12-11T08:04:09.739Z,54.40
2023-12-11T08:05:11.643Z,55.69
2023-12-11T08:06:13.665Z,53.01
2023-12-11T08:07:16.580Z,53.33
2023-12-11T08:08:18.339Z,52.94
2023-12-11T08:09:20.125Z,52.27
2023-12-11T08:10:22.011Z,52.59
2023-12-11T08:11:29.810Z,53.44
2023-12-11T08:12:34.545Z,51.17
2023-12-11T08:13:36.454Z,50.99
2023-12-11T08:14:39.661Z,49.89
2023-12-11T08:15:42.437Z,49.28
2023-12-11T08:16:44.270Z,48.18
2023-12-11T08:17:46.212Z,48.43
2023-12-11T08:18:49.514Z,49.73
2023-12-11T08:19:52.206Z,48.46
2023-12-11T08:20:54.041Z,47.75
2023-12-11T08:21:55.871Z,47.73
2023-12-11T08:22:57.626Z,46.70
2023-12-11T08:23:59.718Z,47.34
2023-12-11T08:25:01.639Z,45.54
2023-12-11T08:26:03.484Z,47.24
2023-12-11T08:27:08.621Z,46.76
2023-12-11T08:28:10.523Z,44.13
2023-12-11T08:29:12.273Z,42.81
2023-12-11T08:30:14.159Z,43.21
2023-12-11T08:31:16.826Z,44.65
2023-12-11T08:32:18.659Z,45.07
2023-12-11T08:33:20.580Z,44.49
2023-12-11T08:34:22.581Z,43.38
2023-12-11T08:35:24.346Z,43.89
2023-12-11T08:36:26.238Z,42.81
2023-12-11T08:37:27.988Z,43.54
2023-12-11T08:38:29.863Z,41.67
2023-12-11T08:39:31.585Z,41.64
2023-12-11T08:40:33.419Z,41.55
2023-12-11T08:41:35.450Z,41.97
2023-12-11T08:42:40.959Z,42.30
2023-12-11T08:43:44.165Z,39.86
2023-12-11T08:44:45.902Z,41.29
2023-12-11T08:45:47.865Z,41.02
2023-12-11T08:46:49.703Z,42.43
2023-12-11T08:47:51.479Z,41.65
2023-12-11T08:48:54.328Z,40.99
2023-12-11T08:49:56.702Z,41.38
2023-12-11T08:50:58.594Z,42.68
2023-12-11T08:52:01.760Z,42.30
2023-12-11T08:53:04.917Z,42.60
2023-12-11T08:54:06.873Z,41.29
2023-12-11T08:55:08.994Z,41.21
2023-12-11T08:56:12.043Z,40.52
2023-12-11T08:57:14.051Z,40.58
2023-12-11T08:58:16.037Z,41.34
2023-12-11T08:59:18.024Z,40.78
2023-12-11T09:00:20.114Z,40.44
2023-12-11T09:01:22.098Z,40.00
2023-12-11T09:02:24.851Z,40.29
2023-12-11T09:03:27.296Z,41.11
2023-12-11T09:04:30.072Z,40.45
2023-12-11T09:05:31.796Z,39.80
2023-12-11T09:06:33.473Z,39.18
2023-12-11T09:07:36.154Z,39.69
2023-12-11T09:08:37.975Z,40.90
2023-12-11T09:09:40.509Z,39.84
2023-12-11T09:10:42.599Z,41.14
2023-12-11T09:11:44.505Z,39.61
2023-12-11T09:12:46.645Z,39.00
2023-12-11T09:13:48.423Z,39.62
2023-12-11T09:14:50.727Z,38.57
2023-12-11T09:15:52.713Z,38.26
2023-12-11T09:16:54.486Z,37.03
2023-12-11T09:17:56.363Z,36.06
2023-12-11T09:18:58.294Z,37.57
2023-12-11T09:20:00.567Z,38.64
2023-12-11T09:21:02.457Z,38.21
2023-12-11T09:22:04.338Z,37.65
2023-12-11T09:23:06.180Z,39.51
2023-12-11T09:24:08.253Z,38.34
2023-12-11T09:25:10.576Z,37.86
2023-12-11T09:26:12.377Z,37.14
2023-12-11T09:27:14.155Z,36.83
2023-12-11T09:28:16.633Z,37.47
2023-12-11T09:29:19.054Z,38.00
2023-12-11T09:30:20.783Z,37.98
2023-12-11T09:31:25.605Z,37.40
2023-12-11T09:32:29.045Z,36.54
2023-12-11T09:33:32.122Z,37.67
2023-12-11T09:34:36.927Z,38.01
2023-12-11T09:35:38.958Z,37.80
2023-12-11T09:36:40.861Z,38.16
2023-12-11T09:37:42.774Z,38.50
2023-12-11T09:38:44.682Z,37.14
2023-12-11T09:39:48.607Z,37.53
2023-12-11T09:40:50.461Z,37.28
2023-12-11T09:41:53.253Z,37.59
2023-12-11T09:42:55.174Z,35.95
2023-12-11T09:43:58.414Z,35.33
2023-12-11T09:45:00.920Z,35.93
2023-12-11T09:46:06.531Z,35.11
2023-12-11T09:47:15.547Z,36.29
2023-12-11T09:48:17.434Z,35.56
2023-12-11T09:49:19.937Z,35.52
2023-12-11T09:50:21.903Z,35.24
2023-12-11T09:51:23.805Z,35.18
2023-12-11T09:52:25.931Z,33.93
2023-12-11T09:53:31.409Z,33.61
2023-12-11T09:54:33.212Z,33.56
2023-12-11T09:55:35.833Z,33.78
2023-12-11T09:56:39.796Z,34.10
2023-12-11T09:57:43.518Z,32.88
2023-12-11T09:58:46.234Z,33.75
2023-12-11T09:59:51.452Z,33.58
2023-12-11T10:00:54.061Z,33.32
2023-12-11T10:01:56.785Z,33.30
2023-12-11T10:03:01.959Z,33.12
2023-12-11T10:04:04.031Z,33.22
2023-12-11T10:05:08.926Z,32.81
2023-12-11T10:06:10.889Z,33.71
2023-12-11T10:07:12.777Z,33.19
2023-12-11T10:08:17.314Z,34.06
2023-12-11T10:09:34.525Z,33.76
2023-12-11T10:10:39.549Z,33.55
2023-12-11T10:11:41.410Z,34.01
2023-12-11T10:12:44.014Z,34.26
2023-12-11T10:13:51.123Z,34.86
2023-12-11T10:15:02.365Z,33.77
2023-12-11T10:16:06.594Z,33.82
2023-12-11T10:17:19.118Z,34.81
2023-12-11T10:18:20.991Z,33.64
2023-12-11T10:19:33.819Z,34.81
2023-12-11T10:20:40.589Z,34.97
2023-12-11T10:21:42.882Z,35.32
2023-12-11T10:22:44.760Z,35.18
2023-12-11T10:24:02.925Z,35.69
2023-12-11T10:25:05.140Z,35.29
2023-12-11T10:26:07.813Z,35.36
2023-12-11T10:27:09.449Z,36.18
2023-12-11T10:28:13.302Z,36.22
2023-12-11T10:29:22.564Z,36.50
2023-12-11T10:30:24.890Z,35.39
2023-12-11T10:31:36.710Z,36.46
2023-12-11T10:32:39.384Z,36.23
2023-12-11T10:33:49.957Z,35.18
2023-12-11T10:34:53.076Z,36.26
2023-12-11T10:36:11.844Z,37.30
2023-12-11T10:37:15.289Z,36.46
2023-12-11T10:38:47.443Z,36.06
2023-12-11T10:39:54.147Z,36.80
2023-12-11T10:40:57.640Z,36.86
2023-12-11T10:42:13.158Z,36.76
2023-12-11T10:43:15.045Z,37.74
2023-12-11T10:44:42.888Z,37.66
2023-12-11T10:45:51.650Z,38.11
2023-12-11T10:46:58.577Z,38.05
2023-12-11T10:48:04.958Z,38.75
2023-12-11T10:49:07.225Z,39.70
2023-12-11T10:50:09.261Z,40.07
2023-12-11T10:51:11.592Z,40.60
2023-12-11T10:52:13.623Z,40.66
2023-12-11T10:53:17.070Z,41.30
2023-12-11T10:54:21.162Z,41.13
2023-12-11T10:55:23.289Z,41.60
2023-12-11T10:56:25.596Z,40.92
2023-12-11T10:57:29.889Z,42.16
2023-12-11T10:58:31.905Z,42.68
2023-12-11T10:59:35.302Z,43.05
2023-12-11T11:00:39.636Z,43.23
2023-12-11T11:01:46.075Z,43.32
2023-12-11T11:02:52.298Z,44.78
2023-12-11T11:03:54.368Z,45.40
2023-12-11T11:04:57.698Z,46.15
2023-12-11T11:06:00.625Z,46.88
2023-12-11T11:07:15.258Z,47.12
2023-12-11T11:08:38.404Z,48.04
2023-12-11T11:09:59.127Z,49.01
2023-12-11T11:11:15.236Z,50.05
2023-12-11T11:12:41.540Z,50.06
2023-12-11T11:14:25.235Z,50.14
2023-12-11T11:15:27.485Z,50.32
2023-12-11T11:16:54.573Z,50.49
2023-12-11T11:18:02.076Z,51.05
2023-12-11T11:19:08.625Z,51.68
2023-12-11T11:20:14.876Z,52.27
2023-12-11T11:21:16.706Z,52.91
2023-12-11T11:22:31.164Z,53.93
2023-12-11T11:23:43.508Z,54.63
2023-12-11T11:24:45.444Z,53.87
2023-12-11T11:25:54.616Z,53.79
2023-12-11T11:26:57.773Z,54.40
2023-12-11T11:28:00.269Z,54.75
2023-12-11T11:29:06.330Z,55.35
2023-12-11T11:30:09.550Z,56.24
2023-12-11T11:31:20.257Z,55.67
2023-12-11T11:32:56.870Z,55.47
2023-12-11T11:34:00.184Z,57.38
2023-12-11T11:35:02.077Z,57.25
2023-12-11T11:36:04.094Z,58.33
2023-12-11T11:37:05.950Z,57.89
2023-12-11T11:38:07.846Z,57.60
2023-12-11T11:39:09.597Z,57.67
2023-12-11T11:40:12.140Z,58.14
2023-12-11T11:41:27.852Z,58.01
2023-12-11T11:42:33.008Z,57.80
2023-12-11T11:43:34.855Z,58.69
2023-12-11T11:44:36.821Z,58.56
2023-12-11T11:45:39.112Z,58.70
2023-12-11T11:47:01.353Z,58.44
2023-12-11T11:48:05.201Z,59.07
2023-12-11T11:49:07.204Z,59.16
2023-12-11T11:50:11.665Z,58.47
2023-12-11T11:51:13.540Z,58.54
2023-12-11T11:52:20.235Z,58.19
2023-12-11T11:53:22.651Z,58.61
2023-12-11T11:54:25.937Z,59.23
2023-12-11T11:55:29.052Z,59.65
2023-12-11T11:56:31.067Z,58.44
2023-12-11T11:57:34.193Z,58.97
2023-12-11T11:58:36.045Z,59.00
2023-12-11T11:59:46.715Z,60.50
2023-12-11T12:00:50.471Z,60.07
2023-12-11T12:01:54.439Z,60.16
2023-12-11T12:03:21.301Z,59.46
2023-12-11T12:04:36.169Z,58.17
2023-12-11T12:05:38.552Z,57.92
2023-12-11T12:06:40.315Z,58.01
2023-12-11T12:07:42.725Z,58.35
2023-12-11T12:08:44.602Z,58.40
2023-12-11T12:09:53.417Z,58.48
2023-12-11T12:10:58.358Z,59.61
2023-12-11T12:12:01.942Z,59.65
2023-12-11T12:13:05.551Z,59.94
2023-12-11T12:14:13.990Z,59.70
2023-12-11T12:15:15.887Z,59.02
2023-12-11T12:16:30.326Z,59.72
2023-12-11T12:17:36.037Z,58.87
2023-12-11T12:18:49.748Z,59.06
2023-12-11T12:19:51.679Z,59.18
2023-12-11T12:21:06.240Z,58.49
2023-12-11T12:22:10.393Z,59.97
2023-12-11T12:23:12.329Z,60.03
2023-12-11T12:24:14.024Z,59.90
2023-12-11T12:25:18.549Z,59.20
2023-12-11T12:26:20.284Z,58.54
2023-12-11T12:27:27.124Z,60.15
2023-12-11T12:28:29.078Z,60.54
2023-12-11T12:29:33.263Z,59.59
2023-12-11T12:30:35.830Z,60.00
2023-12-11T12:31:39.558Z,59.57
2023-12-11T12:32:41.482Z,59.19
2023-12-11T12:33:43.561Z,60.78
2023-12-11T12:34:47.809Z,60.02
2023-12-11T12:35:50.230Z,60.70
2023-12-11T12:36:55.707Z,60.40
2023-12-11T12:37:58.181Z,60.88
2023-12-11T12:39:01.086Z,61.07
2023-12-11T12:40:07.400Z,61.09
2023-12-11T12:41:12.993Z,60.83
2023-12-11T12:42:14.981Z,60.62
2023-12-11T12:43:16.750Z,61.16
2023-12-11T12:44:21.480Z,60.70
2023-12-11T12:45:35.653Z,61.14
2023-12-11T12:46:42.776Z,60.81
2023-12-11T12:47:48.213Z,61.22
2023-12-11T12:48:50.079Z,61.02
2023-12-11T12:49:51.963Z,61.25
2023-12-11T12:51:11.186Z,61.49
2023-12-11T12:52:22.173Z,61.19
2023-12-11T12:53:26.342Z,61.74
2023-12-11T12:54:31.406Z,61.16
2023-12-11T12:55:34.095Z,62.17
2023-12-11T12:56:35.899Z,61.75
2023-12-11T12:57:37.708Z,61.68
2023-12-11T12:58:40.011Z,61.88
2023-12-11T12:59:42.148Z,62.16
2023-12-11T13:00:44.188Z,62.39
2023-12-11T13:01:46.294Z,63.09
2023-12-11T13:02:52.009Z,62.14
2023-12-11T13:04:00.830Z,62.83
2023-12-11T13:05:02.711Z,61.79
2023-12-11T13:06:06.268Z,61.70
2023-12-11T13:07:12.062Z,62.22
2023-12-11T13:08:16.149Z,61.95
2023-12-11T13:09:33.342Z,63.07
2023-12-11T13:10:35.193Z,62.16
2023-12-11T13:11:43.304Z,62.66
2023-12-11T13:12:45.135Z,62.84
2023-12-11T13:13:56.565Z,62.92
2023-12-11T13:14:58.319Z,63.05
2023-12-11T13:16:00.189Z,63.20
2023-12-11T13:17:01.874Z,63.08
2023-12-11T13:18:03.595Z,62.90
2023-12-11T13:19:05.506Z,63.33
2023-12-11T13:20:08.913Z,64.18
2023-12-11T13:21:10.603Z,64.94
2023-12-11T13:22:12.889Z,63.95
2023-12-11T13:23:14.759Z,63.62
2023-12-11T13:24:16.739Z,63.99
2023-12-11T13:25:18.419Z,64.13
2023-12-11T13:26:20.136Z,64.81
2023-12-11T13:27:26.428Z,65.00
2023-12-11T13:28:28.109Z,64.70
2023-12-11T13:29:29.711Z,64.79
2023-12-11T13:30:32.065Z,65.14
2023-12-11T13:31:33.740Z,65.67
2023-12-11T13:32:35.541Z,64.84
2023-12-11T13:33:37.367Z,64.86